EAG5508 MTPP-TNCC
Flight info
| Callsign | EAG5508 |
|---|---|
| Flight time | 1h 6m |
| Altitude | 41000 |
| Route | TOVOL1S TOVOL DCT DARKE UA315 VESKA VESKA1B |
| Aircraft | A359/H-SDE2E3GHIJ3J4J5LM1ORWXY/LB1D1 |
Departure
| Time | 2026-05-05 11:15 |
|---|---|
| Airport | Toussaint Louverture International Airport (MTPP) |
Arrival
| Time | 2026-05-05 12:21 |
|---|---|
| Airport | Hato International Airport (TNCC) |
| Time | Latitude | Longitude | Altitude | Speed | Heading |
|---|---|---|---|---|---|
| 2026-05-05 10:59 | 18.57635 | -72.29203 | 111 ft | 0 kts | 177° |
| 2026-05-05 11:02 | 18.57661 | -72.29206 | 108 ft | 4 kts | 137° |
| 2026-05-05 11:03 | 18.57673 | -72.29229 | 109 ft | 3 kts | 111° |
| 2026-05-05 11:03 | 18.57682 | -72.29253 | 108 ft | 4 kts | 111° |
| 2026-05-05 11:03 | 18.57686 | -72.29265 | 106 ft | 4 kts | 109° |
| 2026-05-05 11:03 | 18.57690 | -72.29292 | 106 ft | 4 kts | 79° |
| 2026-05-05 11:04 | 18.57686 | -72.29318 | 106 ft | 2 kts | 92° |
| 2026-05-05 11:04 | 18.57686 | -72.29324 | 106 ft | 0 kts | 92° |
| 2026-05-05 11:06 | 18.57686 | -72.29334 | 106 ft | 2 kts | 92° |
| 2026-05-05 11:06 | 18.57687 | -72.29351 | 105 ft | 2 kts | 92° |
| 2026-05-05 11:07 | 18.57688 | -72.29369 | 105 ft | 2 kts | 92° |
| 2026-05-05 11:07 | 18.57687 | -72.29387 | 105 ft | 3 kts | 87° |
| 2026-05-05 11:07 | 18.57686 | -72.29404 | 105 ft | 2 kts | 88° |
| 2026-05-05 11:07 | 18.57686 | -72.29422 | 105 ft | 2 kts | 94° |
| 2026-05-05 11:08 | 18.57687 | -72.29439 | 105 ft | 2 kts | 89° |
| 2026-05-05 11:08 | 18.57687 | -72.29456 | 105 ft | 2 kts | 89° |
| 2026-05-05 11:08 | 18.57687 | -72.29473 | 107 ft | 2 kts | 89° |
| 2026-05-05 11:08 | 18.57687 | -72.29489 | 105 ft | 0 kts | 89° |
| 2026-05-05 11:09 | 18.57687 | -72.29488 | 105 ft | 1 kts | 89° |
| 2026-05-05 11:09 | 18.57721 | -72.29462 | 106 ft | 9 kts | 16° |
| 2026-05-05 11:10 | 18.57793 | -72.29462 | 105 ft | 12 kts | 357° |
| 2026-05-05 11:10 | 18.57879 | -72.29466 | 107 ft | 13 kts | 356° |
| 2026-05-05 11:10 | 18.57962 | -72.29495 | 110 ft | 13 kts | 335° |
| 2026-05-05 11:10 | 18.57994 | -72.29567 | 108 ft | 13 kts | 262° |
| 2026-05-05 11:11 | 18.57983 | -72.29677 | 106 ft | 17 kts | 266° |
| 2026-05-05 11:11 | 18.57976 | -72.29807 | 106 ft | 18 kts | 267° |
| 2026-05-05 11:11 | 18.57970 | -72.29947 | 107 ft | 20 kts | 267° |
| 2026-05-05 11:11 | 18.57961 | -72.30109 | 105 ft | 25 kts | 267° |
| 2026-05-05 11:12 | 18.57952 | -72.30299 | 105 ft | 27 kts | 267° |
| 2026-05-05 11:12 | 18.57945 | -72.30438 | 105 ft | 18 kts | 266° |
| 2026-05-05 11:12 | 18.57938 | -72.30566 | 97 ft | 12 kts | 266° |
| 2026-05-05 11:12 | 18.57905 | -72.30650 | 97 ft | 9 kts | 244° |
| 2026-05-05 11:13 | 18.57921 | -72.30673 | 96 ft | 2 kts | 13° |
| 2026-05-05 11:13 | 18.57928 | -72.30659 | 94 ft | 6 kts | 65° |
| 2026-05-05 11:13 | 18.57933 | -72.30626 | 98 ft | 0 kts | 83° |
| 2026-05-05 11:14 | 18.57934 | -72.30618 | 99 ft | 14 kts | 83° |
| 2026-05-05 11:14 | 18.57953 | -72.30244 | 104 ft | 86 kts | 86° |
| 2026-05-05 11:14 | 18.57997 | -72.29382 | 114 ft | 147 kts | 87° |
| 2026-05-05 11:14 | 18.58052 | -72.28257 | 635 ft | 154 kts | 89° |
| 2026-05-05 11:15 | 18.58094 | -72.27120 | 1333 ft | 160 kts | 87° |
| 2026-05-05 11:15 | 18.58160 | -72.25857 | 1651 ft | 186 kts | 87° |
| 2026-05-05 11:15 | 18.58279 | -72.24397 | 1951 ft | 213 kts | 81° |
| 2026-05-05 11:15 | 18.58673 | -72.22823 | 2524 ft | 229 kts | 73° |
| 2026-05-05 11:16 | 18.59176 | -72.21199 | 3258 ft | 237 kts | 72° |
| 2026-05-05 11:16 | 18.59700 | -72.19526 | 3929 ft | 242 kts | 73° |
| 2026-05-05 11:16 | 18.60219 | -72.17854 | 4881 ft | 240 kts | 74° |
| 2026-05-05 11:16 | 18.60730 | -72.16193 | 5633 ft | 243 kts | 74° |
| 2026-05-05 11:17 | 18.61251 | -72.14488 | 6402 ft | 246 kts | 75° |
| 2026-05-05 11:17 | 18.61780 | -72.12757 | 7115 ft | 250 kts | 75° |
| 2026-05-05 11:17 | 18.62319 | -72.10992 | 7833 ft | 256 kts | 75° |
| 2026-05-05 11:17 | 18.62732 | -72.09156 | 8543 ft | 260 kts | 87° |
| 2026-05-05 11:18 | 18.62516 | -72.07278 | 9303 ft | 259 kts | 108° |
| 2026-05-05 11:18 | 18.61957 | -72.05453 | 10049 ft | 265 kts | 111° |
| 2026-05-05 11:18 | 18.61342 | -72.03603 | 10724 ft | 270 kts | 111° |
| 2026-05-05 11:18 | 18.60725 | -72.01740 | 11395 ft | 276 kts | 111° |
| 2026-05-05 11:19 | 18.60094 | -71.99812 | 12114 ft | 281 kts | 111° |
| 2026-05-05 11:19 | 18.59312 | -71.97918 | 12810 ft | 284 kts | 124° |
| 2026-05-05 11:19 | 18.58110 | -71.96208 | 13245 ft | 300 kts | 132° |
| 2026-05-05 11:19 | 18.56706 | -71.94485 | 13531 ft | 320 kts | 133° |
| 2026-05-05 11:20 | 18.55200 | -71.92663 | 13804 ft | 339 kts | 133° |
| 2026-05-05 11:20 | 18.53617 | -71.90737 | 14037 ft | 356 kts | 133° |
| 2026-05-05 11:20 | 18.51778 | -71.88920 | 14260 ft | 370 kts | 147° |
| 2026-05-05 11:20 | 18.49403 | -71.87844 | 14557 ft | 377 kts | 168° |
| 2026-05-05 11:21 | 18.46851 | -71.87302 | 15007 ft | 381 kts | 172° |
| 2026-05-05 11:21 | 18.44218 | -71.86817 | 15439 ft | 387 kts | 172° |
| 2026-05-05 11:21 | 18.41549 | -71.86322 | 15892 ft | 391 kts | 172° |
| 2026-05-05 11:21 | 18.38859 | -71.85812 | 16453 ft | 394 kts | 172° |
| 2026-05-05 11:22 | 18.36134 | -71.85519 | 16947 ft | 395 kts | 182° |
| 2026-05-05 11:22 | 18.33418 | -71.85916 | 17437 ft | 396 kts | 198° |
| 2026-05-05 11:22 | 18.30911 | -71.87093 | 17973 ft | 396 kts | 213° |
| 2026-05-05 11:22 | 18.28805 | -71.88944 | 18517 ft | 396 kts | 228° |
| 2026-05-05 11:23 | 18.26998 | -71.91144 | 18972 ft | 399 kts | 231° |
| 2026-05-05 11:23 | 18.25235 | -71.93412 | 19430 ft | 402 kts | 232° |
| 2026-05-05 11:23 | 18.23482 | -71.95663 | 19858 ft | 406 kts | 232° |
| 2026-05-05 11:23 | 18.21669 | -71.97977 | 20197 ft | 413 kts | 232° |
| 2026-05-05 11:24 | 18.19820 | -72.00303 | 20657 ft | 416 kts | 230° |
| 2026-05-05 11:24 | 18.17718 | -72.02423 | 21120 ft | 421 kts | 219° |
| 2026-05-05 11:24 | 18.15205 | -72.04038 | 21587 ft | 428 kts | 206° |
| 2026-05-05 11:24 | 18.12361 | -72.05012 | 22033 ft | 435 kts | 193° |
| 2026-05-05 11:25 | 18.09327 | -72.05260 | 22456 ft | 442 kts | 179° |
| 2026-05-05 11:25 | 18.06272 | -72.04735 | 22870 ft | 449 kts | 165° |
| 2026-05-05 11:25 | 18.03383 | -72.03429 | 23282 ft | 456 kts | 150° |
| 2026-05-05 11:25 | 18.00884 | -72.01434 | 23661 ft | 462 kts | 136° |
| 2026-05-05 11:26 | 17.98544 | -71.99106 | 24005 ft | 465 kts | 141° |
| 2026-05-05 11:26 | 17.95957 | -71.97063 | 24381 ft | 466 kts | 147° |
| 2026-05-05 11:26 | 17.93241 | -71.95192 | 24801 ft | 468 kts | 149° |
| 2026-05-05 11:26 | 17.90457 | -71.93414 | 25233 ft | 470 kts | 151° |
| 2026-05-05 11:27 | 17.87620 | -71.91673 | 25628 ft | 474 kts | 152° |
| 2026-05-05 11:27 | 17.84756 | -71.89933 | 26093 ft | 476 kts | 152° |
| 2026-05-05 11:27 | 17.81892 | -71.88181 | 26681 ft | 476 kts | 152° |
| 2026-05-05 11:27 | 17.79026 | -71.86413 | 27130 ft | 480 kts | 151° |
| 2026-05-05 11:28 | 17.76184 | -71.84645 | 27571 ft | 483 kts | 151° |
| 2026-05-05 11:28 | 17.73294 | -71.82836 | 28032 ft | 486 kts | 151° |
| 2026-05-05 11:28 | 17.70381 | -71.81009 | 28477 ft | 489 kts | 151° |
| 2026-05-05 11:28 | 17.67455 | -71.79171 | 28907 ft | 492 kts | 151° |
| 2026-05-05 11:29 | 17.64508 | -71.77320 | 29334 ft | 495 kts | 151° |
| 2026-05-05 11:29 | 17.61546 | -71.75461 | 29758 ft | 498 kts | 151° |
| 2026-05-05 11:29 | 17.58560 | -71.73588 | 30153 ft | 501 kts | 152° |
| 2026-05-05 11:29 | 17.55559 | -71.71708 | 30472 ft | 504 kts | 152° |
| 2026-05-05 11:30 | 17.52577 | -71.69840 | 30787 ft | 507 kts | 151° |
| 2026-05-05 11:30 | 17.49543 | -71.67938 | 31105 ft | 510 kts | 151° |
| 2026-05-05 11:30 | 17.46493 | -71.66025 | 31397 ft | 513 kts | 151° |
| 2026-05-05 11:30 | 17.43429 | -71.64103 | 31696 ft | 515 kts | 151° |
| 2026-05-05 11:31 | 17.40342 | -71.62168 | 31979 ft | 518 kts | 152° |
| 2026-05-05 11:31 | 17.37247 | -71.60229 | 32265 ft | 520 kts | 152° |
| 2026-05-05 11:31 | 17.34133 | -71.58280 | 32534 ft | 523 kts | 152° |
| 2026-05-05 11:31 | 17.31006 | -71.56323 | 32840 ft | 524 kts | 152° |
| 2026-05-05 11:32 | 17.27879 | -71.54367 | 33251 ft | 523 kts | 152° |
| 2026-05-05 11:32 | 17.24802 | -71.52442 | 33634 ft | 522 kts | 152° |
| 2026-05-05 11:32 | 17.21684 | -71.50493 | 33991 ft | 522 kts | 152° |
| 2026-05-05 11:32 | 17.18567 | -71.48545 | 34303 ft | 522 kts | 152° |
| 2026-05-05 11:33 | 17.15456 | -71.46604 | 34636 ft | 521 kts | 152° |
| 2026-05-05 11:33 | 17.12349 | -71.44663 | 34990 ft | 519 kts | 152° |
| 2026-05-05 11:33 | 17.09247 | -71.42725 | 35331 ft | 518 kts | 152° |
| 2026-05-05 11:33 | 17.06157 | -71.40794 | 35661 ft | 517 kts | 152° |
| 2026-05-05 11:34 | 17.03072 | -71.38868 | 35984 ft | 516 kts | 152° |
| 2026-05-05 11:34 | 16.99988 | -71.36943 | 36302 ft | 515 kts | 152° |
| 2026-05-05 11:34 | 16.96953 | -71.35050 | 36606 ft | 515 kts | 152° |
| 2026-05-05 11:34 | 16.93882 | -71.33136 | 36922 ft | 514 kts | 152° |
| 2026-05-05 11:35 | 16.90813 | -71.31224 | 37220 ft | 513 kts | 153° |
| 2026-05-05 11:35 | 16.87749 | -71.29318 | 37502 ft | 512 kts | 153° |
| 2026-05-05 11:35 | 16.84691 | -71.27416 | 37798 ft | 511 kts | 152° |
| 2026-05-05 11:35 | 16.81636 | -71.25516 | 38102 ft | 510 kts | 152° |
| 2026-05-05 11:36 | 16.78592 | -71.23623 | 38392 ft | 509 kts | 153° |
| 2026-05-05 11:36 | 16.75548 | -71.21731 | 38661 ft | 508 kts | 153° |
| 2026-05-05 11:36 | 16.72511 | -71.19845 | 38884 ft | 508 kts | 153° |
| 2026-05-05 11:36 | 16.69522 | -71.17989 | 39076 ft | 507 kts | 153° |
| 2026-05-05 11:37 | 16.66488 | -71.16106 | 39268 ft | 507 kts | 153° |
| 2026-05-05 11:37 | 16.63460 | -71.14226 | 39464 ft | 507 kts | 153° |
| 2026-05-05 11:37 | 16.60426 | -71.12345 | 39654 ft | 506 kts | 153° |
| 2026-05-05 11:37 | 16.57402 | -71.10470 | 39825 ft | 506 kts | 153° |
| 2026-05-05 11:38 | 16.54380 | -71.08597 | 40025 ft | 505 kts | 153° |
| 2026-05-05 11:38 | 16.51360 | -71.06725 | 40196 ft | 505 kts | 153° |
| 2026-05-05 11:38 | 16.48343 | -71.04857 | 40385 ft | 504 kts | 153° |
| 2026-05-05 11:38 | 16.45330 | -71.02991 | 40563 ft | 503 kts | 153° |
| 2026-05-05 11:39 | 16.42362 | -71.01154 | 40737 ft | 503 kts | 153° |
| 2026-05-05 11:39 | 16.39358 | -70.99296 | 40885 ft | 502 kts | 153° |
| 2026-05-05 11:39 | 16.36351 | -70.97436 | 40991 ft | 503 kts | 153° |
| 2026-05-05 11:40 | 16.30344 | -70.93723 | 41005 ft | 502 kts | 153° |
| 2026-05-05 11:40 | 16.24337 | -70.90013 | 41001 ft | 502 kts | 153° |
| 2026-05-05 11:41 | 16.18329 | -70.86305 | 41002 ft | 502 kts | 153° |
| 2026-05-05 11:41 | 16.12366 | -70.82627 | 40998 ft | 502 kts | 152° |
| 2026-05-05 11:42 | 16.06363 | -70.78926 | 40998 ft | 501 kts | 152° |
| 2026-05-05 11:42 | 16.00340 | -70.75266 | 40994 ft | 500 kts | 156° |
| 2026-05-05 11:43 | 15.94013 | -70.72334 | 40998 ft | 498 kts | 160° |
| 2026-05-05 11:43 | 15.87678 | -70.69551 | 40999 ft | 498 kts | 160° |
| 2026-05-05 11:44 | 15.81303 | -70.66743 | 40999 ft | 498 kts | 160° |
| 2026-05-05 11:44 | 15.74923 | -70.63931 | 40996 ft | 498 kts | 160° |
| 2026-05-05 11:45 | 15.68554 | -70.61124 | 40994 ft | 498 kts | 160° |
| 2026-05-05 11:45 | 15.62222 | -70.58335 | 40996 ft | 498 kts | 160° |
| 2026-05-05 11:46 | 15.55850 | -70.55529 | 40999 ft | 498 kts | 160° |
| 2026-05-05 11:46 | 15.49476 | -70.52725 | 41006 ft | 497 kts | 160° |
| 2026-05-05 11:47 | 15.43353 | -70.50033 | 40997 ft | 497 kts | 160° |
| 2026-05-05 11:47 | 15.37027 | -70.47254 | 41003 ft | 497 kts | 160° |
| 2026-05-05 11:48 | 15.27484 | -70.43064 | 40997 ft | 497 kts | 160° |
| 2026-05-05 11:48 | 15.21118 | -70.40272 | 40995 ft | 497 kts | 159° |
| 2026-05-05 11:49 | 15.14753 | -70.37482 | 40995 ft | 497 kts | 160° |
| 2026-05-05 11:49 | 15.08433 | -70.34713 | 40996 ft | 497 kts | 159° |
| 2026-05-05 11:50 | 15.02065 | -70.31926 | 41000 ft | 497 kts | 160° |
| 2026-05-05 11:50 | 14.95697 | -70.29140 | 40994 ft | 497 kts | 159° |
| 2026-05-05 11:51 | 14.89319 | -70.26351 | 40996 ft | 497 kts | 159° |
| 2026-05-05 11:51 | 14.82993 | -70.23587 | 40991 ft | 497 kts | 160° |
| 2026-05-05 11:52 | 14.76618 | -70.20804 | 40995 ft | 497 kts | 159° |
| 2026-05-05 11:52 | 14.70247 | -70.18024 | 40997 ft | 497 kts | 159° |
| 2026-05-05 11:53 | 14.63868 | -70.15242 | 40991 ft | 498 kts | 159° |
| 2026-05-05 11:53 | 14.57489 | -70.12462 | 40999 ft | 497 kts | 160° |
| 2026-05-05 11:54 | 14.51159 | -70.09705 | 40995 ft | 497 kts | 160° |
| 2026-05-05 11:54 | 14.44782 | -70.06929 | 40991 ft | 498 kts | 159° |
| 2026-05-05 11:55 | 14.38405 | -70.04155 | 41001 ft | 497 kts | 160° |
| 2026-05-05 11:55 | 14.32071 | -70.01401 | 41004 ft | 497 kts | 160° |
| 2026-05-05 11:56 | 14.25700 | -69.98633 | 41002 ft | 496 kts | 159° |
| 2026-05-05 11:56 | 14.19335 | -69.95870 | 40996 ft | 497 kts | 159° |
| 2026-05-05 11:57 | 14.12957 | -69.93102 | 41001 ft | 497 kts | 159° |
| 2026-05-05 11:57 | 14.06609 | -69.90349 | 40621 ft | 492 kts | 160° |
| 2026-05-05 11:58 | 14.03445 | -69.88977 | 39807 ft | 495 kts | 160° |
| 2026-05-05 11:58 | 14.00296 | -69.87614 | 39011 ft | 500 kts | 159° |
| 2026-05-05 11:58 | 13.97082 | -69.86222 | 38183 ft | 503 kts | 159° |
| 2026-05-05 11:58 | 13.93845 | -69.84821 | 37274 ft | 506 kts | 159° |
| 2026-05-05 11:59 | 13.90583 | -69.83408 | 36326 ft | 511 kts | 159° |
| 2026-05-05 11:59 | 13.87287 | -69.81982 | 35354 ft | 517 kts | 159° |
| 2026-05-05 11:59 | 13.83947 | -69.80538 | 34402 ft | 523 kts | 159° |
| 2026-05-05 11:59 | 13.80584 | -69.79083 | 33492 ft | 526 kts | 158° |
| 2026-05-05 12:00 | 13.77207 | -69.77622 | 32577 ft | 527 kts | 159° |
| 2026-05-05 12:00 | 13.73807 | -69.76152 | 31552 ft | 532 kts | 158° |
| 2026-05-05 12:00 | 13.70382 | -69.74672 | 30495 ft | 537 kts | 158° |
| 2026-05-05 12:00 | 13.66973 | -69.73199 | 29496 ft | 539 kts | 158° |
| 2026-05-05 12:01 | 13.63521 | -69.71708 | 28626 ft | 536 kts | 158° |
| 2026-05-05 12:01 | 13.60108 | -69.70234 | 27869 ft | 530 kts | 158° |
| 2026-05-05 12:01 | 13.56712 | -69.68768 | 27050 ft | 528 kts | 158° |
| 2026-05-05 12:01 | 13.53331 | -69.67309 | 26290 ft | 525 kts | 158° |
| 2026-05-05 12:02 | 13.50025 | -69.65882 | 25645 ft | 504 kts | 158° |
| 2026-05-05 12:02 | 13.46828 | -69.64503 | 24452 ft | 495 kts | 158° |
| 2026-05-05 12:02 | 13.43683 | -69.63146 | 23611 ft | 486 kts | 158° |
| 2026-05-05 12:02 | 13.40576 | -69.61808 | 22861 ft | 483 kts | 158° |
| 2026-05-05 12:03 | 13.37537 | -69.60500 | 22183 ft | 478 kts | 158° |
| 2026-05-05 12:03 | 13.34491 | -69.59189 | 21535 ft | 472 kts | 157° |
| 2026-05-05 12:03 | 13.31482 | -69.57893 | 20886 ft | 466 kts | 157° |
| 2026-05-05 12:03 | 13.28510 | -69.56615 | 20229 ft | 460 kts | 156° |
| 2026-05-05 12:04 | 13.25618 | -69.55371 | 19568 ft | 439 kts | 156° |
| 2026-05-05 12:04 | 13.22828 | -69.54172 | 18935 ft | 431 kts | 155° |
| 2026-05-05 12:04 | 13.20089 | -69.52994 | 18291 ft | 423 kts | 155° |
| 2026-05-05 12:04 | 13.17429 | -69.51850 | 17599 ft | 416 kts | 155° |
| 2026-05-05 12:05 | 13.14772 | -69.50707 | 16964 ft | 413 kts | 155° |
| 2026-05-05 12:05 | 13.12130 | -69.49570 | 16325 ft | 411 kts | 154° |
| 2026-05-05 12:05 | 13.09507 | -69.48443 | 15691 ft | 407 kts | 155° |
| 2026-05-05 12:05 | 13.06906 | -69.47325 | 15052 ft | 404 kts | 154° |
| 2026-05-05 12:06 | 13.04329 | -69.46218 | 14408 ft | 400 kts | 154° |
| 2026-05-05 12:06 | 13.01774 | -69.45121 | 13774 ft | 397 kts | 155° |
| 2026-05-05 12:06 | 12.99238 | -69.44032 | 13080 ft | 393 kts | 154° |
| 2026-05-05 12:06 | 12.96736 | -69.42958 | 12421 ft | 388 kts | 155° |
| 2026-05-05 12:07 | 12.94297 | -69.41911 | 11799 ft | 383 kts | 155° |
| 2026-05-05 12:07 | 12.91857 | -69.40865 | 11160 ft | 378 kts | 154° |
| 2026-05-05 12:07 | 12.89460 | -69.39836 | 10788 ft | 366 kts | 155° |
| 2026-05-05 12:07 | 12.87172 | -69.38858 | 10675 ft | 347 kts | 154° |
| 2026-05-05 12:08 | 12.85001 | -69.37929 | 10571 ft | 329 kts | 154° |
| 2026-05-05 12:08 | 12.82942 | -69.37047 | 10473 ft | 313 kts | 154° |
| 2026-05-05 12:08 | 12.80977 | -69.36205 | 10333 ft | 299 kts | 155° |
| 2026-05-05 12:08 | 12.79100 | -69.35400 | 10188 ft | 286 kts | 154° |
| 2026-05-05 12:09 | 12.77305 | -69.34631 | 10069 ft | 275 kts | 155° |
| 2026-05-05 12:09 | 12.75565 | -69.33885 | 9784 ft | 278 kts | 155° |
| 2026-05-05 12:09 | 12.73762 | -69.33109 | 9493 ft | 282 kts | 154° |
| 2026-05-05 12:09 | 12.71962 | -69.32338 | 9254 ft | 278 kts | 155° |
| 2026-05-05 12:10 | 12.70178 | -69.31574 | 9044 ft | 278 kts | 154° |
| 2026-05-05 12:10 | 12.68413 | -69.30820 | 8824 ft | 273 kts | 154° |
| 2026-05-05 12:10 | 12.66662 | -69.30070 | 8598 ft | 274 kts | 155° |
| 2026-05-05 12:10 | 12.64902 | -69.29317 | 8393 ft | 273 kts | 154° |
| 2026-05-05 12:11 | 12.63162 | -69.28574 | 8170 ft | 270 kts | 155° |
| 2026-05-05 12:11 | 12.61427 | -69.27832 | 7945 ft | 271 kts | 155° |
| 2026-05-05 12:11 | 12.59725 | -69.27104 | 7724 ft | 267 kts | 154° |
| 2026-05-05 12:11 | 12.58019 | -69.26376 | 7511 ft | 265 kts | 154° |
| 2026-05-05 12:12 | 12.56308 | -69.25644 | 7304 ft | 268 kts | 155° |
| 2026-05-05 12:12 | 12.54588 | -69.24909 | 7094 ft | 267 kts | 155° |
| 2026-05-05 12:12 | 12.52885 | -69.24182 | 6871 ft | 263 kts | 154° |
| 2026-05-05 12:12 | 12.51199 | -69.23462 | 6662 ft | 263 kts | 155° |
| 2026-05-05 12:13 | 12.49511 | -69.22741 | 6451 ft | 264 kts | 155° |
| 2026-05-05 12:13 | 12.47815 | -69.22016 | 6224 ft | 265 kts | 155° |
| 2026-05-05 12:13 | 12.46113 | -69.21290 | 6025 ft | 264 kts | 155° |
| 2026-05-05 12:13 | 12.44450 | -69.20581 | 5802 ft | 260 kts | 155° |
| 2026-05-05 12:14 | 12.42791 | -69.19873 | 5602 ft | 258 kts | 155° |
| 2026-05-05 12:14 | 12.41146 | -69.19172 | 5390 ft | 255 kts | 155° |
| 2026-05-05 12:14 | 12.39504 | -69.18471 | 5192 ft | 257 kts | 155° |
| 2026-05-05 12:14 | 12.37851 | -69.17765 | 4988 ft | 258 kts | 155° |
| 2026-05-05 12:15 | 12.36196 | -69.17060 | 4786 ft | 255 kts | 155° |
| 2026-05-05 12:15 | 12.34574 | -69.16369 | 4578 ft | 251 kts | 155° |
| 2026-05-05 12:15 | 12.32965 | -69.15684 | 4379 ft | 251 kts | 155° |
| 2026-05-05 12:15 | 12.31287 | -69.15253 | 4173 ft | 256 kts | 173° |
| 2026-05-05 12:16 | 12.29501 | -69.15431 | 3718 ft | 263 kts | 189° |
| 2026-05-05 12:16 | 12.27768 | -69.16056 | 3322 ft | 265 kts | 197° |
| 2026-05-05 12:16 | 12.26063 | -69.16762 | 2865 ft | 264 kts | 195° |
| 2026-05-05 12:16 | 12.24296 | -69.17001 | 2558 ft | 252 kts | 167° |
| 2026-05-05 12:17 | 12.22788 | -69.16245 | 2491 ft | 241 kts | 132° |
| 2026-05-05 12:17 | 12.22085 | -69.14742 | 2488 ft | 239 kts | 97° |
| 2026-05-05 12:17 | 12.22148 | -69.13046 | 2492 ft | 239 kts | 89° |
| 2026-05-05 12:17 | 12.22057 | -69.11375 | 2491 ft | 237 kts | 99° |
| 2026-05-05 12:18 | 12.21768 | -69.09745 | 2477 ft | 229 kts | 102° |
| 2026-05-05 12:18 | 12.21441 | -69.08170 | 2247 ft | 224 kts | 103° |
| 2026-05-05 12:18 | 12.21119 | -69.06642 | 1954 ft | 214 kts | 102° |
| 2026-05-05 12:18 | 12.20815 | -69.05204 | 1680 ft | 199 kts | 102° |
| 2026-05-05 12:19 | 12.20538 | -69.03873 | 1432 ft | 184 kts | 102° |
| 2026-05-05 12:19 | 12.20299 | -69.02653 | 1260 ft | 166 kts | 100° |
| 2026-05-05 12:19 | 12.20072 | -69.01541 | 990 ft | 153 kts | 103° |
| 2026-05-05 12:19 | 12.19846 | -69.00521 | 781 ft | 141 kts | 102° |
| 2026-05-05 12:20 | 12.19660 | -68.99591 | 595 ft | 129 kts | 103° |
| 2026-05-05 12:20 | 12.19468 | -68.98686 | 419 ft | 133 kts | 105° |
| 2026-05-05 12:20 | 12.19257 | -68.97751 | 240 ft | 135 kts | 101° |
| 2026-05-05 12:20 | 12.19074 | -68.96860 | 101 ft | 122 kts | 101° |
| 2026-05-05 12:21 | 12.18903 | -68.96036 | 48 ft | 109 kts | 102° |
| 2026-05-05 12:21 | 12.18766 | -68.95388 | 43 ft | 78 kts | 102° |
| 2026-05-05 12:21 | 12.18670 | -68.94929 | 51 ft | 53 kts | 102° |
| 2026-05-05 12:21 | 12.18617 | -68.94678 | 49 ft | 19 kts | 102° |
| 2026-05-05 12:22 | 12.18589 | -68.94550 | 49 ft | 19 kts | 102° |
| 2026-05-05 12:22 | 12.18509 | -68.94467 | 49 ft | 18 kts | 188° |
| 2026-05-05 12:22 | 12.18425 | -68.94513 | 45 ft | 14 kts | 249° |
| 2026-05-05 12:22 | 12.18427 | -68.94617 | 49 ft | 16 kts | 282° |
| 2026-05-05 12:23 | 12.18453 | -68.94741 | 48 ft | 19 kts | 282° |
| 2026-05-05 12:23 | 12.18483 | -68.94887 | 46 ft | 23 kts | 282° |
| 2026-05-05 12:23 | 12.18514 | -68.95040 | 46 ft | 22 kts | 282° |
| 2026-05-05 12:23 | 12.18541 | -68.95164 | 45 ft | 15 kts | 282° |
| 2026-05-05 12:24 | 12.18562 | -68.95260 | 48 ft | 16 kts | 283° |
| 2026-05-05 12:24 | 12.18583 | -68.95358 | 46 ft | 9 kts | 282° |
| 2026-05-05 12:24 | 12.18585 | -68.95372 | 45 ft | 0 kts | 282° |
| 2026-05-05 12:25 | 12.18587 | -68.95379 | 46 ft | 3 kts | 281° |
| 2026-05-05 12:25 | 12.18596 | -68.95427 | 47 ft | 11 kts | 281° |
| 2026-05-05 12:25 | 12.18616 | -68.95521 | 45 ft | 17 kts | 282° |
| 2026-05-05 12:26 | 12.18643 | -68.95651 | 48 ft | 21 kts | 282° |
| 2026-05-05 12:26 | 12.18666 | -68.95759 | 45 ft | 13 kts | 282° |
| 2026-05-05 12:26 | 12.18681 | -68.95828 | 47 ft | 0 kts | 282° |
| 2026-05-05 12:26 | 12.18675 | -68.95840 | 45 ft | 4 kts | 242° |
| 2026-05-05 12:27 | 12.18636 | -68.95860 | 45 ft | 10 kts | 198° |
| 2026-05-05 12:27 | 12.18583 | -68.95872 | 43 ft | 4 kts | 192° |
| 2026-05-05 12:27 | 12.18565 | -68.95876 | 43 ft | 0 kts | 192° |